Time;durP1;ratioP1;P1;durP2;ratioP2;P2;SDS_P1;SDS_P2;PMS_P1;PMS_P2;Temp;Humidity;BMP_temperature;BMP_pressure;BME280_temperature;BME280_humidity;BME280_pressure;Samples;Min_cycle;Max_cycle;Signal;HPM_P1;HPM_P2
2023/09/29 00:00:44;;;;;;;12.95;8.88;;;;;;;15.70;72.24;101189.56;7397835;19;20006;-67
2023/09/29 00:03:13;;;;;;;9.98;8.75;;;;;;;15.67;71.89;101185.22;7395746;19;20037;-67
2023/09/29 00:05:42;;;;;;;9.40;8.40;;;;;;;15.65;72.15;101184.41;7393514;19;20029;-68
2023/09/29 00:08:15;;;;;;;9.38;8.48;;;;;;;15.61;72.39;101181.00;7395202;19;20493;-67
2023/09/29 00:10:46;;;;;;;9.88;8.68;;;;;;;15.60;72.31;101173.13;7396780;19;20041;-68
2023/09/29 00:13:15;;;;;;;12.00;9.45;;;;;;;15.57;72.33;101176.75;7397760;19;20033;-68
2023/09/29 00:15:43;;;;;;;12.38;8.60;;;;;;;15.55;72.44;101172.44;7397333;19;20011;-68
2023/09/29 00:18:12;;;;;;;9.80;8.80;;;;;;;15.53;72.81;101177.78;7395808;19;20414;-68
2023/09/29 00:20:40;;;;;;;12.70;8.65;;;;;;;15.51;72.55;101178.78;7394958;19;20010;-68
2023/09/29 00:23:09;;;;;;;10.32;8.82;;;;;;;15.49;72.69;101176.16;7396498;19;20014;-67
2023/09/29 00:25:37;;;;;;;11.75;8.73;;;;;;;15.48;73.03;101177.09;7397032;19;20027;-67
2023/09/29 00:28:10;;;;;;;13.05;8.40;;;;;;;15.45;73.06;101170.09;7395910;19;20069;-67
2023/09/29 00:30:39;;;;;;;14.27;7.95;;;;;;;15.43;73.06;101174.59;7395162;19;20018;-68
2023/09/29 00:33:08;;;;;;;8.90;8.00;;;;;;;15.41;73.00;101168.50;7395107;19;20010;-67
2023/09/29 00:35:37;;;;;;;11.20;8.95;;;;;;;15.39;73.08;101165.06;7396646;19;20014;-68
2023/09/29 00:38:05;;;;;;;10.65;8.55;;;;;;;15.38;73.26;101162.44;7395262;19;20010;-68
2023/09/29 00:40:35;;;;;;;12.43;8.50;;;;;;;15.35;73.21;101159.94;7396551;19;20037;-67
2023/09/29 00:43:06;;;;;;;10.15;8.65;;;;;;;15.32;73.11;101155.63;7396099;19;20027;-68
2023/09/29 00:45:38;;;;;;;9.30;8.07;;;;;;;15.32;73.03;101156.47;7396779;19;20365;-69
2023/09/29 00:48:10;;;;;;;10.40;8.40;;;;;;;15.30;73.21;101149.50;7394825;19;20018;-68
2023/09/29 00:50:41;;;;;;;10.80;9.10;;;;;;;15.29;73.16;101145.13;7395870;19;20488;-68
2023/09/29 00:53:14;;;;;;;8.95;7.90;;;;;;;15.26;73.20;101143.47;7394092;19;20062;-67
2023/09/29 00:55:45;;;;;;;9.40;8.45;;;;;;;15.26;73.29;101143.47;7395627;19;20015;-67
2023/09/29 00:58:15;;;;;;;13.73;8.88;;;;;;;15.25;73.34;101144.41;7394373;19;20053;-67
2023/09/29 01:00:47;;;;;;;9.95;8.65;;;;;;;15.24;73.68;101137.38;7395498;19;20423;-68
2023/09/29 01:03:16;;;;;;;10.05;7.90;;;;;;;15.23;73.40;101146.22;7395193;19;20011;-69
2023/09/29 01:05:47;;;;;;;10.73;8.73;;;;;;;15.20;73.58;101135.75;7395780;19;20017;-68
2023/09/29 01:08:23;;;;;;;12.00;8.80;;;;;;;15.19;73.58;101136.69;7394877;19;20027;-69
2023/09/29 01:10:52;;;;;;;10.15;8.13;;;;;;;15.17;73.65;101140.28;7394292;19;20485;-68
2023/09/29 01:13:22;;;;;;;10.68;9.07;;;;;;;15.14;73.76;101136.84;7394925;19;20011;-67
2023/09/29 01:15:54;;;;;;;11.93;8.50;;;;;;;15.12;74.01;101135.16;7394317;19;20480;-67
2023/09/29 01:18:22;;;;;;;8.95;8.13;;;;;;;15.09;73.92;101132.59;7394469;19;20014;-66
2023/09/29 01:20:51;;;;;;;11.65;8.85;;;;;;;15.05;73.85;101138.91;7394975;19;20016;-68
2023/09/29 01:23:20;;;;;;;10.32;9.02;;;;;;;15.03;74.02;101133.69;7393386;19;20014;-68
2023/09/29 01:25:51;;;;;;;9.95;8.25;;;;;;;15.02;74.16;101131.97;7393432;19;20014;-67
2023/09/29 01:28:19;;;;;;;13.65;8.30;;;;;;;14.99;74.35;101135.56;7393427;19;20082;-67
2023/09/29 01:30:53;;;;;;;10.60;8.10;;;;;;;14.98;74.19;101127.69;7392869;19;20014;-66
2023/09/29 01:33:21;;;;;;;9.27;8.02;;;;;;;14.96;74.17;101134.81;7393781;19;20015;-68
2023/09/29 01:35:51;;;;;;;10.63;8.60;;;;;;;14.94;74.53;101123.44;7394619;19;20007;-67
2023/09/29 01:38:19;;;;;;;11.60;8.57;;;;;;;14.94;74.27;101129.59;7393706;19;20014;-67
2023/09/29 01:40:48;;;;;;;11.15;8.82;;;;;;;14.93;74.21;101125.22;7392631;19;20023;-67
2023/09/29 01:43:22;;;;;;;13.05;9.45;;;;;;;14.91;74.50;101129.69;7394594;19;20085;-67
2023/09/29 01:45:50;;;;;;;10.15;8.18;;;;;;;14.90;74.38;101133.25;7397181;19;20021;-68
2023/09/29 01:48:19;;;;;;;9.50;8.43;;;;;;;14.91;74.58;101128.81;7394805;19;20099;-67
2023/09/29 01:50:47;;;;;;;10.38;8.18;;;;;;;14.89;74.58;101131.53;7393771;19;20010;-68
2023/09/29 01:53:16;;;;;;;11.63;8.77;;;;;;;14.89;74.59;101130.66;7395981;19;20007;-68
2023/09/29 01:55:44;;;;;;;10.07;9.00;;;;;;;14.89;74.53;101130.66;7392466;19;20034;-68
2023/09/29 01:58:12;;;;;;;10.15;8.05;;;;;;;14.88;74.33;101131.56;7393165;19;20077;-67
2023/09/29 02:00:46;;;;;;;9.27;8.35;;;;;;;14.87;74.56;101140.41;7392331;19;20078;-67
2023/09/29 02:03:14;;;;;;;10.67;9.17;;;;;;;14.87;74.54;101140.41;7393946;19;20078;-68
2023/09/29 02:05:42;;;;;;;10.63;9.43;;;;;;;14.86;74.77;101133.41;7391676;19;20010;-67
2023/09/29 02:08:11;;;;;;;14.20;8.57;;;;;;;14.86;75.01;101130.75;7391904;19;20015;-68
2023/09/29 02:10:49;;;;;;;12.32;10.20;;;;;;;14.85;75.01;101132.53;7392614;19;20014;-68
2023/09/29 02:13:24;;;;;;;9.77;8.30;;;;;;;14.85;74.92;101129.03;7394430;19;20026;-68
2023/09/29 02:15:55;;;;;;;10.30;8.73;;;;;;;14.85;74.95;101131.66;7393464;19;20023;-68
2023/09/29 02:18:24;;;;;;;10.70;9.43;;;;;;;14.84;74.85;101130.81;7391944;19;20069;-68
2023/09/29 02:20:52;;;;;;;10.90;8.77;;;;;;;14.85;74.98;101132.53;7391521;19;20011;-67
2023/09/29 02:23:22;;;;;;;11.38;9.55;;;;;;;14.84;74.98;101117.59;7391127;19;20501;-69
2023/09/29 02:25:51;;;;;;;12.57;8.82;;;;;;;14.83;74.89;101122.00;7390956;19;20010;-67
2023/09/29 02:28:20;;;;;;;11.90;9.10;;;;;;;14.86;75.04;101122.84;7394168;19;20026;-67
2023/09/29 02:30:49;;;;;;;9.70;8.57;;;;;;;14.86;75.14;101122.84;7400864;19;20018;-67
2023/09/29 02:33:20;;;;;;;10.95;8.70;;;;;;;14.87;75.10;101114.00;7400211;19;20021;-68
2023/09/29 02:35:50;;;;;;;11.23;9.25;;;;;;;14.85;74.97;101121.97;7398343;19;20010;-67
2023/09/29 02:38:19;;;;;;;12.88;9.50;;;;;;;14.86;75.15;101115.78;7398758;19;20027;-67
2023/09/29 02:40:47;;;;;;;14.18;9.32;;;;;;;14.86;74.96;101120.19;7397763;19;20014;-68
2023/09/29 02:43:16;;;;;;;10.88;9.52;;;;;;;14.84;75.23;101112.31;7397648;19;20007;-68
2023/09/29 02:45:45;;;;;;;12.88;8.98;;;;;;;14.84;74.95;101114.97;7397628;19;20075;-66
2023/09/29 02:48:13;;;;;;;15.20;9.95;;;;;;;14.84;75.01;101120.25;7397511;19;20007;-67
2023/09/29 02:50:45;;;;;;;12.68;9.50;;;;;;;14.82;75.25;101114.13;7397305;19;20581;-68
2023/09/29 02:53:14;;;;;;;13.73;8.85;;;;;;;14.82;75.28;101114.13;7399554;19;20014;-68
2023/09/29 02:55:43;;;;;;;11.43;8.85;;;;;;;14.81;75.45;101123.84;7399738;19;20037;-68
2023/09/29 02:58:13;;;;;;;10.75;9.43;;;;;;;14.81;75.45;101115.94;7398299;19;20015;-68
2023/09/29 03:00:42;;;;;;;12.98;8.75;;;;;;;14.79;75.44;101115.09;7400358;19;20074;-68
2023/09/29 03:03:13;;;;;;;11.90;9.07;;;;;;;14.79;75.33;101112.47;7397209;19;20018;-66
2023/09/29 03:05:44;;;;;;;11.05;9.25;;;;;;;14.78;75.42;101118.66;7396814;19;20007;-67
2023/09/29 03:08:14;;;;;;;11.98;9.70;;;;;;;14.77;75.58;101119.59;7397344;19;20010;-67
2023/09/29 03:10:43;;;;;;;9.75;8.57;;;;;;;14.77;75.48;101119.59;7397249;19;20011;-68
2023/09/29 03:13:18;;;;;;;11.73;9.93;;;;;;;14.76;75.59;101117.88;7395400;19;20034;-68
2023/09/29 03:15:53;;;;;;;14.27;8.88;;;;;;;14.76;75.54;101115.22;7399517;19;20019;-69
2023/09/29 03:18:29;;;;;;;16.80;9.93;;;;;;;14.76;75.82;101114.34;7397452;19;20018;-68
2023/09/29 03:21:00;;;;;;;13.00;9.85;;;;;;;14.74;75.91;101118.84;7399277;19;20015;-68
2023/09/29 03:23:30;;;;;;;13.27;9.48;;;;;;;14.72;75.79;101108.31;7398928;19;20014;-67
2023/09/29 03:25:59;;;;;;;12.77;9.25;;;;;;;14.74;75.98;101113.56;7396366;19;20003;-67
2023/09/29 03:28:27;;;;;;;10.85;9.07;;;;;;;14.73;75.81;101114.47;7397377;19;20019;-67
2023/09/29 03:30:56;;;;;;;11.45;9.10;;;;;;;14.72;76.25;101107.44;7398802;19;20014;-68
2023/09/29 03:33:24;;;;;;;12.00;9.35;;;;;;;14.71;76.16;101098.66;7398693;19;20010;-68
2023/09/29 03:35:53;;;;;;;10.57;9.48;;;;;;;14.70;76.26;101102.22;7398247;19;20090;-67
2023/09/29 03:38:25;;;;;;;16.27;11.82;;;;;;;14.71;76.04;101098.66;7396134;19;20095;-67
2023/09/29 03:40:54;;;;;;;12.20;10.07;;;;;;;14.69;76.21;101100.50;7397629;19;20495;-67
2023/09/29 03:43:23;;;;;;;13.55;9.85;;;;;;;14.68;76.15;101104.03;7398046;19;20014;-68
2023/09/29 03:45:53;;;;;;;14.73;10.25;;;;;;;14.68;76.47;101100.53;7395738;19;20481;-69
2023/09/29 03:48:22;;;;;;;14.43;10.07;;;;;;;14.65;76.32;101102.38;7396861;19;20045;-67
2023/09/29 03:50:51;;;;;;;12.48;10.43;;;;;;;14.65;76.33;101102.38;7396027;19;20014;-69
2023/09/29 03:53:21;;;;;;;16.05;9.80;;;;;;;14.65;76.59;101101.50;7397484;19;20376;-69
2023/09/29 03:55:52;;;;;;;12.13;10.70;;;;;;;14.62;76.49;101107.72;7397858;19;20015;-69
2023/09/29 03:58:21;;;;;;;10.45;9.32;;;;;;;14.61;76.65;101108.63;7396637;19;20003;-68
2023/09/29 04:00:49;;;;;;;11.82;9.48;;;;;;;14.61;76.79;101113.91;7395768;19;20010;-67
2023/09/29 04:03:18;;;;;;;13.15;10.02;;;;;;;14.59;76.75;101101.69;7397254;19;20077;-67
2023/09/29 04:05:46;;;;;;;12.15;10.30;;;;;;;14.58;76.81;101105.22;7395466;19;20027;-68
2023/09/29 04:08:15;;;;;;;12.70;10.50;;;;;;;14.57;76.90;101100.84;7395517;19;20093;-68
2023/09/29 04:10:43;;;;;;;12.75;10.05;;;;;;;14.56;76.86;101104.41;7396816;19;20363;-68
2023/09/29 04:13:15;;;;;;;15.15;11.07;;;;;;;14.54;77.01;101095.69;7395364;19;20022;-68
2023/09/29 04:15:43;;;;;;;11.40;9.98;;;;;;;14.52;77.04;101102.78;7397618;19;20021;-68
2023/09/29 04:18:11;;;;;;;11.35;9.93;;;;;;;14.50;77.05;101111.59;7395903;19;20077;-68
2023/09/29 04:20:41;;;;;;;12.52;9.95;;;;;;;14.48;77.25;101109.94;7396326;19;20007;-68
2023/09/29 04:23:09;;;;;;;16.35;10.55;;;;;;;14.45;77.42;101100.34;7397664;19;20023;-68
2023/09/29 04:25:38;;;;;;;13.20;10.35;;;;;;;14.44;77.53;101095.97;7394449;19;20377;-68
2023/09/29 04:28:07;;;;;;;14.90;10.52;;;;;;;14.43;77.63;101106.59;7395300;19;20081;-68
2023/09/29 04:30:38;;;;;;;11.75;10.38;;;;;;;14.41;77.57;101113.72;7396172;19;20346;-68
2023/09/29 04:33:07;;;;;;;14.38;10.82;;;;;;;14.39;77.77;101111.09;7396653;19;20082;-68
2023/09/29 04:35:35;;;;;;;12.98;10.60;;;;;;;14.36;77.83;101111.19;7396086;19;20018;-68
2023/09/29 04:38:04;;;;;;;16.92;12.40;;;;;;;14.35;78.12;101114.75;7395044;19;20378;-69
2023/09/29 04:40:32;;;;;;;16.17;11.93;;;;;;;14.33;78.10;101111.28;7395678;19;20011;-69
2023/09/29 04:43:03;;;;;;;12.10;10.77;;;;;;;14.32;78.36;101118.34;7395522;19;20082;-68
2023/09/29 04:45:33;;;;;;;13.50;11.82;;;;;;;14.30;78.25;101114.03;7395279;19;20066;-67
2023/09/29 04:48:05;;;;;;;16.80;12.40;;;;;;;14.28;78.25;101115.84;7395629;19;20011;-68
2023/09/29 04:50:34;;;;;;;14.18;11.98;;;;;;;14.28;78.50;101121.13;7394202;19;20078;-67
2023/09/29 04:53:02;;;;;;;18.25;11.80;;;;;;;14.26;78.63;101115.06;7395531;19;20006;-68
2023/09/29 04:55:31;;;;;;;14.27;11.90;;;;;;;14.25;78.47;101113.31;7393928;19;20011;-67
2023/09/29 04:57:59;;;;;;;20.05;12.20;;;;;;;14.24;78.50;101108.94;7393824;19;20017;-67
2023/09/29 05:00:29;;;;;;;15.98;11.88;;;;;;;14.18;78.82;101105.59;7393581;19;20103;-68
2023/09/29 05:02:57;;;;;;;18.50;11.35;;;;;;;14.22;78.94;101110.78;7392944;19;20011;-67
2023/09/29 05:05:28;;;;;;;15.50;12.15;;;;;;;14.20;78.82;101112.59;7393534;19;20074;-66
2023/09/29 05:07:57;;;;;;;13.40;10.60;;;;;;;14.19;78.91;101111.72;7391960;19;20469;-68
2023/09/29 05:10:26;;;;;;;15.63;10.85;;;;;;;14.18;79.03;101118.78;7392204;19;20019;-67
2023/09/29 05:12:54;;;;;;;12.35;10.55;;;;;;;14.18;79.13;101126.69;7392952;19;20027;-67
2023/09/29 05:15:23;;;;;;;13.90;10.60;;;;;;;14.18;79.21;101123.22;7391712;19;20007;-68
2023/09/29 05:17:51;;;;;;;13.43;10.95;;;;;;;14.19;79.32;101122.28;7392662;19;20027;-67
2023/09/29 05:20:20;;;;;;;13.20;11.18;;;;;;;14.20;79.46;101117.88;7391918;19;20395;-67
2023/09/29 05:22:51;;;;;;;12.88;11.27;;;;;;;14.20;79.37;101123.16;7392566;19;20014;-66
2023/09/29 05:25:19;;;;;;;13.45;10.40;;;;;;;14.22;79.49;101118.69;7391561;19;20010;-67
2023/09/29 05:27:48;;;;;;;15.73;11.13;;;;;;;14.23;79.46;101121.28;7392712;19;20007;-67
2023/09/29 05:30:19;;;;;;;14.50;9.70;;;;;;;14.26;79.72;101122.97;7394018;19;20459;-66
2023/09/29 05:32:47;;;;;;;12.52;10.38;;;;;;;14.29;79.91;101115.81;7392982;19;20491;-67
2023/09/29 05:35:16;;;;;;;12.52;10.32;;;;;;;14.32;79.75;101121.00;7392792;19;20007;-67
2023/09/29 05:37:44;;;;;;;11.27;10.07;;;;;;;14.36;79.91;101124.41;7392921;19;20014;-66
2023/09/29 05:40:15;;;;;;;12.43;10.38;;;;;;;14.41;79.76;101126.91;7394106;19;20014;-66
2023/09/29 05:42:45;;;;;;;13.57;10.02;;;;;;;14.44;79.89;101124.16;7394469;19;20031;-67
2023/09/29 05:45:14;;;;;;;11.90;9.48;;;;;;;14.49;79.75;101122.22;7393108;19;20373;-67
2023/09/29 05:47:42;;;;;;;11.43;9.70;;;;;;;14.55;79.68;101119.38;7392338;19;20018;-66
2023/09/29 05:50:12;;;;;;;10.45;9.40;;;;;;;14.59;79.67;101115.72;7393613;19;20014;-67
2023/09/29 05:52:40;;;;;;;14.77;9.95;;;;;;;14.65;79.61;101114.72;7392970;19;20033;-68
2023/09/29 05:55:10;;;;;;;12.27;9.80;;;;;;;14.72;79.88;101107.44;7393881;19;20121;-66
2023/09/29 05:57:42;;;;;;;12.65;9.05;;;;;;;14.79;79.99;101108.97;7393240;19;20018;-66
2023/09/29 06:00:13;;;;;;;10.80;8.98;;;;;;;14.90;79.83;101111.22;7391489;19;20078;-67
2023/09/29 06:02:41;;;;;;;11.80;9.43;;;;;;;14.98;79.68;101119.78;7391962;19;20025;-67
2023/09/29 06:05:11;;;;;;;11.35;9.20;;;;;;;15.07;79.35;101121.25;7400010;19;20073;-65
2023/09/29 06:07:39;;;;;;;11.88;9.23;;;;;;;15.17;79.27;101116.50;7397668;19;20028;-66
2023/09/29 06:10:09;;;;;;;10.35;7.85;;;;;;;15.25;79.03;101130.31;7400803;19;20007;-67
2023/09/29 06:12:38;;;;;;;11.27;9.38;;;;;;;15.31;78.87;101132.72;7397412;19;20363;-66
2023/09/29 06:15:11;;;;;;;11.48;8.88;;;;;;;15.41;78.70;101135.91;7398070;19;20032;-68
2023/09/29 06:17:40;;;;;;;11.07;9.03;;;;;;;15.49;78.43;101128.56;7399536;19;20010;-66
2023/09/29 06:20:10;;;;;;;10.35;8.23;;;;;;;15.58;78.32;101137.94;7397528;19;20073;-66
2023/09/29 06:22:38;;;;;;;10.68;8.23;;;;;;;15.66;78.25;101141.19;7396646;19;20360;-65
2023/09/29 06:25:08;;;;;;;13.02;9.93;;;;;;;15.74;77.77;101144.38;7397315;19;20019;-66
2023/09/29 06:27:36;;;;;;;16.17;8.93;;;;;;;15.82;77.78;101148.56;7397011;19;20446;-67
2023/09/29 06:30:06;;;;;;;10.57;8.65;;;;;;;15.87;77.53;101139.56;7399764;19;20078;-66
2023/09/29 06:32:37;;;;;;;17.38;13.90;;;;;;;15.94;77.33;101145.47;7397491;19;20022;-65
2023/09/29 06:35:06;;;;;;;11.52;9.23;;;;;;;16.02;77.30;101143.38;7399551;19;20516;-67
2023/09/29 06:37:35;;;;;;;11.32;8.50;;;;;;;16.09;76.86;101128.16;7397144;19;20066;-65
2023/09/29 06:40:03;;;;;;;11.73;8.93;;;;;;;16.18;76.98;101132.22;7399288;19;20007;-68
2023/09/29 06:42:32;;;;;;;10.80;9.15;;;;;;;16.24;76.30;101137.28;7398644;19;20472;-70
2023/09/29 06:45:00;;;;;;;11.60;9.07;;;;;;;16.29;76.36;101140.63;7400112;19;20071;-66
2023/09/29 06:47:29;;;;;;;10.02;8.07;;;;;;;16.33;75.99;101139.56;7399255;19;20027;-66
2023/09/29 06:50:00;;;;;;;13.27;9.00;;;;;;;16.35;75.64;101145.66;7398953;19;20481;-68
2023/09/29 06:52:29;;;;;;;12.15;9.27;;;;;;;16.39;75.83;101138.44;7399176;19;20021;-68
2023/09/29 06:54:55;;;;;;;15.85;9.82;;;;;;;16.43;75.63;101146.22;7397578;19;20074;-68
2023/09/29 06:57:23;;;;;;;12.48;9.48;;;;;;;16.47;75.32;101149.59;7399294;19;20027;-67
2023/09/29 06:59:52;;;;;;;10.85;8.88;;;;;;;16.50;75.17;101151.28;7395835;19;20413;-67
2023/09/29 07:02:20;;;;;;;9.52;8.45;;;;;;;16.53;75.03;101145.84;7398142;19;20079;-68
2023/09/29 07:04:49;;;;;;;9.43;8.38;;;;;;;16.58;75.17;101151.81;7398996;19;20078;-67
2023/09/29 07:07:20;;;;;;;11.85;9.57;;;;;;;16.61;74.98;101149.91;7397223;19;20187;-68
2023/09/29 07:09:49;;;;;;;10.63;8.80;;;;;;;16.67;74.72;101151.44;7396617;19;20078;-68
2023/09/29 07:12:17;;;;;;;10.60;8.35;;;;;;;16.71;74.71;101154.84;7398379;19;20383;-69
2023/09/29 07:14:47;;;;;;;10.25;9.10;;;;;;;16.75;74.45;101148.47;7397437;19;20015;-68
2023/09/29 07:17:15;;;;;;;14.30;9.65;;;;;;;16.80;74.41;101166.84;7398214;19;20086;-68
2023/09/29 07:19:44;;;;;;;10.48;9.45;;;;;;;16.84;74.46;101152.53;7397810;19;20089;-67
2023/09/29 07:22:12;;;;;;;12.95;9.93;;;;;;;16.88;74.16;101156.78;7397929;19;20019;-67
2023/09/29 07:24:44;;;;;;;13.18;10.27;;;;;;;16.94;74.15;101161.84;7398126;19;20078;-67
2023/09/29 07:27:14;;;;;;;11.00;9.85;;;;;;;16.98;74.03;101168.75;7396969;19;20072;-68
2023/09/29 07:29:43;;;;;;;15.95;9.85;;;;;;;17.03;73.61;101163.25;7398214;19;20010;-67
2023/09/29 07:32:14;;;;;;;10.63;9.40;;;;;;;17.07;73.61;101162.19;7398116;19;20015;-69
2023/09/29 07:34:42;;;;;;;15.55;10.20;;;;;;;17.14;73.55;101160.19;7398261;19;20025;-67
2023/09/29 07:37:11;;;;;;;14.60;10.27;;;;;;;17.20;73.30;101162.53;7397531;19;20035;-68
2023/09/29 07:39:39;;;;;;;12.63;10.00;;;;;;;17.25;72.91;101168.53;7397984;19;20007;-67
2023/09/29 07:42:11;;;;;;;15.38;10.13;;;;;;;17.32;72.97;101171.78;7397986;19;20015;-67
2023/09/29 07:44:40;;;;;;;10.13;8.65;;;;;;;17.37;73.00;101157.38;7397404;19;20098;-67
2023/09/29 07:47:08;;;;;;;10.82;9.10;;;;;;;17.44;72.83;101160.63;7396143;19;20078;-68
2023/09/29 07:49:40;;;;;;;14.75;10.18;;;;;;;17.51;72.35;101151.44;7397585;19;20007;-67
2023/09/29 07:52:09;;;;;;;11.73;8.63;;;;;;;17.59;72.49;101151.09;7394687;19;20481;-67
2023/09/29 07:54:37;;;;;;;12.90;8.65;;;;;;;17.69;72.50;101148.91;7397086;19;20015;-68
2023/09/29 07:57:06;;;;;;;11.48;8.13;;;;;;;17.80;71.79;101151.94;7396480;19;20019;-67
2023/09/29 07:59:38;;;;;;;11.13;7.90;;;;;;;17.91;72.00;101159.41;7396696;19;20037;-68
2023/09/29 08:02:06;;;;;;;11.60;8.35;;;;;;;18.03;71.36;101158.00;7395122;19;20019;-69
2023/09/29 08:04:35;;;;;;;10.98;7.55;;;;;;;18.15;71.37;101156.59;7397203;19;20031;-68
2023/09/29 08:07:03;;;;;;;10.27;8.30;;;;;;;18.27;71.15;101153.34;7395076;19;20018;-68
2023/09/29 08:09:32;;;;;;;11.98;7.97;;;;;;;18.38;70.44;101158.16;7394779;19;20014;-68
2023/09/29 08:12:00;;;;;;;10.32;7.65;;;;;;;18.48;70.63;101162.09;7396472;19;20506;-68
2023/09/29 08:14:29;;;;;;;8.63;7.75;;;;;;;18.60;70.09;101159.75;7394480;19;20014;-68
2023/09/29 08:17:00;;;;;;;9.73;7.78;;;;;;;18.69;69.88;101160.19;7394851;19;20086;-69
2023/09/29 08:19:28;;;;;;;10.68;7.15;;;;;;;18.82;69.25;101155.09;7396897;19;20044;-68
2023/09/29 08:21:57;;;;;;;11.32;7.80;;;;;;;18.95;69.30;101155.38;7396358;19;20036;-67
2023/09/29 08:24:25;;;;;;;10.27;7.32;;;;;;;19.07;68.99;101151.25;7396326;19;20069;-68
2023/09/29 08:26:55;;;;;;;11.63;7.50;;;;;;;19.20;68.90;101148.81;7391819;19;20358;-68
2023/09/29 08:29:24;;;;;;;8.23;7.10;;;;;;;19.33;68.60;101149.03;7395194;19;20031;-67
2023/09/29 08:31:53;;;;;;;8.60;6.93;;;;;;;19.42;68.33;101137.91;7394382;19;20031;-67
2023/09/29 08:34:24;;;;;;;14.68;8.73;;;;;;;19.54;67.85;101149.72;7395794;19;20014;-67
2023/09/29 08:36:53;;;;;;;12.10;7.80;;;;;;;19.64;67.44;101152.75;7396050;19;20094;-68
2023/09/29 08:39:23;;;;;;;10.75;7.95;;;;;;;19.72;67.77;101142.53;7395687;19;20108;-69
2023/09/29 08:42:02;;;;;;;9.77;8.05;;;;;;;19.79;67.43;101140.41;7396153;19;20007;-67
2023/09/29 08:44:31;;;;;;;9.98;7.63;;;;;;;19.86;67.04;101139.16;7396136;19;20010;-66
2023/09/29 08:47:03;;;;;;;8.65;6.95;;;;;;;19.92;66.99;101137.97;7394191;19;20506;-68
2023/09/29 08:49:35;;;;;;;7.85;6.97;;;;;;;19.96;66.30;101142.19;7395959;19;20037;-68
2023/09/29 08:52:05;;;;;;;9.43;6.35;;;;;;;20.03;66.62;101140.91;7395643;19;20029;-68
2023/09/29 08:54:35;;;;;;;9.60;6.78;;;;;;;20.09;66.45;101139.69;7394683;19;20023;-67
2023/09/29 08:57:05;;;;;;;9.68;6.20;;;;;;;20.15;66.27;101144.69;7393977;19;20027;-67
2023/09/29 08:59:35;;;;;;;11.07;7.22;;;;;;;20.22;65.91;101145.19;7395025;19;20090;-68
2023/09/29 09:02:03;;;;;;;7.68;6.88;;;;;;;20.28;65.75;101139.53;7394111;19;20010;-68
2023/09/29 09:04:41;;;;;;;7.50;6.60;;;;;;;20.34;65.07;101136.53;7395370;19;20023;-68
2023/09/29 09:07:11;;;;;;;12.80;6.38;;;;;;;20.39;65.21;101133.59;7393409;19;20011;-69
2023/09/29 09:09:40;;;;;;;9.73;7.05;;;;;;;20.45;65.05;101134.09;7395392;19;20464;-67
2023/09/29 09:12:09;;;;;;;7.78;6.40;;;;;;;20.53;64.49;101135.47;7394376;19;20014;-67
2023/09/29 09:14:44;;;;;;;8.60;5.80;;;;;;;20.59;64.33;101129.78;7394487;19;20014;-67
2023/09/29 09:17:13;;;;;;;7.25;5.60;;;;;;;20.66;64.42;101136.47;7394387;19;20013;-68
2023/09/29 09:19:51;;;;;;;8.60;5.95;;;;;;;20.71;64.04;101137.09;7394581;19;20466;-67
2023/09/29 09:22:22;;;;;;;9.27;6.40;;;;;;;20.79;63.89;101137.50;7395263;19;20019;-68
2023/09/29 09:24:51;;;;;;;9.57;5.88;;;;;;;20.86;63.47;101135.34;7394792;19;20021;-68
2023/09/29 09:27:20;;;;;;;9.93;6.20;;;;;;;20.94;63.53;101150.88;7393518;19;20014;-67
2023/09/29 09:29:49;;;;;;;6.88;5.68;;;;;;;21.01;63.05;101149.56;7394275;19;20007;-67
2023/09/29 09:32:18;;;;;;;8.30;6.22;;;;;;;21.07;63.20;101151.88;7393807;19;20017;-67
2023/09/29 09:34:50;;;;;;;9.13;5.93;;;;;;;21.15;62.88;101156.75;7393806;19;20011;-68
2023/09/29 09:37:26;;;;;;;9.52;6.20;;;;;;;21.21;62.51;101153.72;7395401;19;20476;-67
2023/09/29 09:39:59;;;;;;;7.55;6.15;;;;;;;21.26;62.25;101154.31;7402460;19;20034;-68
2023/09/29 09:42:29;;;;;;;7.78;6.10;;;;;;;21.32;62.08;101153.94;7401663;19;20491;-68
2023/09/29 09:44:59;;;;;;;7.45;6.63;;;;;;;21.39;61.91;101150.91;7399329;19;20086;-68
2023/09/29 09:47:29;;;;;;;8.05;6.03;;;;;;;21.44;61.67;101154.97;7399256;19;20074;-68
2023/09/29 09:50:00;;;;;;;6.90;5.85;;;;;;;21.47;61.57;101160.16;7400996;19;20014;-67
2023/09/29 09:52:32;;;;;;;10.70;6.07;;;;;;;21.51;61.49;101162.63;7401882;19;20014;-69
2023/09/29 09:55:02;;;;;;;10.63;6.15;;;;;;;21.52;61.74;101164.34;7398603;19;20014;-68
2023/09/29 09:57:38;;;;;;;10.90;6.50;;;;;;;21.51;61.32;101155.50;7399755;19;20505;-67
2023/09/29 10:00:11;;;;;;;10.10;6.15;;;;;;;21.50;61.30;101159.09;7398581;19;20037;-68
2023/09/29 10:02:45;;;;;;;9.25;5.78;;;;;;;21.52;61.29;101164.34;7398327;19;20007;-68
2023/09/29 10:05:22;;;;;;;10.90;6.07;;;;;;;21.52;61.37;101156.34;7400784;19;20018;-67
2023/09/29 10:07:53;;;;;;;8.63;6.25;;;;;;;21.55;61.76;101150.81;7397856;19;20006;-68
2023/09/29 10:10:31;;;;;;;9.93;7.05;;;;;;;21.59;61.83;101144.38;7398910;19;20010;-68
2023/09/29 10:13:00;;;;;;;12.02;6.57;;;;;;;21.63;61.58;101143.22;7399724;19;20423;-68
2023/09/29 10:15:29;;;;;;;12.68;6.28;;;;;;;21.68;61.71;101140.28;7400711;19;20022;-68
2023/09/29 10:17:59;;;;;;;11.00;6.72;;;;;;;21.75;61.07;101147.78;7399487;19;20369;-68
2023/09/29 10:20:35;;;;;;;9.07;5.57;;;;;;;21.82;61.16;101148.25;7400835;19;20014;-66
2023/09/29 10:23:06;;;;;;;8.65;5.60;;;;;;;21.88;61.00;101145.22;7400866;19;20015;-68
2023/09/29 10:25:35;;;;;;;9.32;6.60;;;;;;;21.94;61.24;101152.00;7396856;19;20023;-68
2023/09/29 10:28:06;;;;;;;9.45;8.15;;;;;;;21.97;60.62;101149.94;7397245;19;20469;-67
2023/09/29 10:30:35;;;;;;;9.13;6.13;;;;;;;21.99;60.92;101147.22;7399575;19;20007;-67
2023/09/29 10:33:11;;;;;;;8.00;6.80;;;;;;;22.03;60.84;101146.06;7399889;19;20039;-66
2023/09/29 10:35:49;;;;;;;13.70;6.45;;;;;;;22.07;60.54;101152.06;7397627;19;20015;-69
2023/09/29 10:38:29;;;;;;;7.50;5.30;;;;;;;22.09;60.12;101152.81;7398642;19;20017;-68
2023/09/29 10:40:58;;;;;;;6.75;5.35;;;;;;;22.13;59.69;101151.66;7400179;19;20010;-68
2023/09/29 10:43:27;;;;;;;7.97;4.88;;;;;;;22.16;59.58;101150.63;7399744;19;20083;-67
2023/09/29 10:45:56;;;;;;;7.97;5.85;;;;;;;22.18;59.42;101148.69;7399891;19;20021;-67
2023/09/29 10:48:26;;;;;;;6.47;4.80;;;;;;;22.22;59.18;101144.88;7396166;19;20014;-68
2023/09/29 10:50:57;;;;;;;17.35;5.55;;;;;;;22.31;59.34;101138.94;7397275;19;20006;-67
2023/09/29 10:53:26;;;;;;;8.32;5.25;;;;;;;22.37;58.98;101137.69;7399594;19;20078;-67
2023/09/29 10:55:59;;;;;;;8.82;5.05;;;;;;;22.45;59.07;101138.06;7399594;19;20025;-68
2023/09/29 10:58:28;;;;;;;8.23;5.10;;;;;;;22.51;58.47;101132.31;7398061;19;20362;-66
2023/09/29 11:00:56;;;;;;;7.07;5.05;;;;;;;22.58;58.19;101130.06;7398745;19;20018;-67
2023/09/29 11:03:29;;;;;;;8.02;4.90;;;;;;;22.63;58.06;101127.94;7396016;19;20014;-68
2023/09/29 11:06:03;;;;;;;;;;;;;;;22.71;57.90;101119.41;7399595;19;20011;-69
2023/09/29 11:08:33;;;;;;;7.80;4.05;;;;;;;22.78;58.15;101126.94;7395935;19;20299;-69
2023/09/29 11:11:02;;;;;;;8.82;4.50;;;;;;;22.84;57.81;101125.66;7398766;19;20041;-69
2023/09/29 11:13:32;;;;;;;8.70;4.60;;;;;;;22.91;57.37;101121.63;7397157;19;20026;-73
2023/09/29 11:16:04;;;;;;;6.22;4.00;;;;;;;22.97;57.34;101119.47;7397870;19;20006;-68
2023/09/29 11:18:34;;;;;;;7.57;4.50;;;;;;;23.02;56.68;101128.03;7395059;19;20094;-68
2023/09/29 11:21:09;;;;;;;7.50;4.35;;;;;;;23.09;56.82;101126.66;7398233;19;20165;-69
2023/09/29 11:23:44;;;;;;;8.20;4.68;;;;;;;23.11;56.91;101116.69;7395824;19;20070;-71
2023/09/29 11:26:13;;;;;;;8.38;3.90;;;;;;;23.17;56.93;101118.16;7398780;19;20018;-71
2023/09/29 11:28:43;;;;;;;6.22;4.10;;;;;;;23.20;56.01;101110.75;7394752;19;20033;-68
2023/09/29 11:31:12;;;;;;;7.82;4.60;;;;;;;23.23;55.81;101101.66;7396926;19;20090;-68